createdAt,value
2022-10-13T00:00:05.164Z,20.33
2022-10-13T00:03:09.488Z,20.25
2022-10-13T00:06:16.465Z,26.40
2022-10-13T00:09:20.753Z,18.50
2022-10-13T00:12:24.715Z,21.35
2022-10-13T00:15:28.557Z,18.35
2022-10-13T00:18:32.576Z,23.23
2022-10-13T00:21:36.550Z,22.02
2022-10-13T00:24:40.895Z,20.60
2022-10-13T00:27:44.687Z,16.88
2022-10-13T00:30:48.667Z,18.00
2022-10-13T00:33:53.851Z,21.90
2022-10-13T00:36:57.967Z,27.33
2022-10-13T00:40:01.834Z,18.05
2022-10-13T00:43:16.196Z,21.73
2022-10-13T00:46:22.382Z,18.63
2022-10-13T00:49:26.913Z,21.50
2022-10-13T00:52:32.927Z,18.90
2022-10-13T00:55:38.539Z,23.88
2022-10-13T00:58:44.083Z,22.15
2022-10-13T01:01:51.344Z,19.75
2022-10-13T01:04:57.238Z,21.70
2022-10-13T01:08:02.278Z,20.38
2022-10-13T01:11:31.395Z,22.15
2022-10-13T01:14:49.910Z,22.02
2022-10-13T01:18:20.347Z,18.00
2022-10-13T01:21:43.410Z,22.88
2022-10-13T01:24:52.561Z,18.75
2022-10-13T01:28:30.587Z,22.80
2022-10-13T01:31:38.299Z,19.33
2022-10-13T01:35:06.962Z,21.67
2022-10-13T01:38:25.095Z,27.48
2022-10-13T01:41:39.882Z,20.45
2022-10-13T01:44:50.569Z,18.85
2022-10-13T01:47:55.169Z,20.98
2022-10-13T01:51:00.309Z,26.15
2022-10-13T01:54:04.323Z,19.73
2022-10-13T01:57:32.471Z,23.08
2022-10-13T02:00:43.727Z,21.45
2022-10-13T02:04:08.714Z,19.60
2022-10-13T02:07:36.657Z,26.38
2022-10-13T02:10:51.310Z,19.73
2022-10-13T02:14:10.233Z,21.80
2022-10-13T02:17:15.669Z,21.00
2022-10-13T02:20:20.657Z,24.65
2022-10-13T02:23:25.373Z,18.88
2022-10-13T02:26:32.047Z,22.40
2022-10-13T02:29:50.191Z,20.52
2022-10-13T02:32:54.495Z,20.98
2022-10-13T02:35:58.452Z,25.23
2022-10-13T02:39:02.314Z,20.67
2022-10-13T02:42:09.064Z,23.33
2022-10-13T02:45:12.882Z,20.63
2022-10-13T02:48:16.907Z,22.92
2022-10-13T02:51:21.093Z,22.60
2022-10-13T02:54:25.044Z,21.95
2022-10-13T02:57:28.917Z,24.23
2022-10-13T03:00:33.070Z,21.08
2022-10-13T03:03:37.405Z,18.95
2022-10-13T03:06:41.483Z,23.17
2022-10-13T03:09:45.292Z,21.77
2022-10-13T03:12:49.095Z,23.98
2022-10-13T03:15:52.999Z,21.63
2022-10-13T03:18:57.279Z,19.48
2022-10-13T03:22:01.092Z,17.90
2022-10-13T03:25:05.325Z,19.08
2022-10-13T03:28:09.101Z,23.88
2022-10-13T03:31:13.011Z,23.02
2022-10-13T03:34:17.570Z,23.52
2022-10-13T03:37:21.492Z,24.67
2022-10-13T03:40:25.309Z,22.70
2022-10-13T03:43:29.485Z,22.60
2022-10-13T03:46:33.636Z,25.38
2022-10-13T03:49:38.240Z,26.23
2022-10-13T03:52:42.156Z,25.50
2022-10-13T03:55:50.890Z,26.98
2022-10-13T03:58:59.728Z,22.45
2022-10-13T04:02:04.488Z,21.90
2022-10-13T04:05:09.172Z,20.60
2022-10-13T04:08:13.934Z,21.90
2022-10-13T04:11:18.913Z,23.83
2022-10-13T04:14:23.009Z,25.75
2022-10-13T04:17:26.794Z,23.27
2022-10-13T04:20:30.524Z,21.17
2022-10-13T04:23:34.617Z,23.92
2022-10-13T04:26:39.654Z,28.48
2022-10-13T04:29:43.654Z,21.23
2022-10-13T04:32:47.432Z,30.75
2022-10-13T04:35:51.878Z,29.60
2022-10-13T04:38:56.170Z,27.15
2022-10-13T04:42:00.533Z,26.00
2022-10-13T04:45:04.966Z,25.45
2022-10-13T04:48:08.486Z,21.48
2022-10-13T04:51:15.327Z,23.65
2022-10-13T04:54:19.446Z,25.58
2022-10-13T04:57:23.647Z,24.20
2022-10-13T05:00:27.473Z,30.15
2022-10-13T05:03:31.266Z,27.55
2022-10-13T05:06:48.580Z,25.42
2022-10-13T05:10:01.834Z,25.35
2022-10-13T05:13:05.728Z,25.60
2022-10-13T05:16:12.886Z,25.88
2022-10-13T05:19:17.150Z,24.80
2022-10-13T05:22:21.735Z,25.23
2022-10-13T05:25:28.236Z,26.85
2022-10-13T05:28:34.807Z,20.25
2022-10-13T05:31:40.044Z,26.00
2022-10-13T05:34:44.836Z,26.80
2022-10-13T05:37:48.970Z,29.52
2022-10-13T05:40:52.991Z,24.52
2022-10-13T05:44:00.486Z,27.67
2022-10-13T05:47:07.522Z,28.88
2022-10-13T05:50:12.101Z,25.23
2022-10-13T05:53:16.729Z,32.00
2022-10-13T05:56:27.264Z,27.02
2022-10-13T05:59:35.131Z,35.45
2022-10-13T06:03:07.857Z,34.53
2022-10-13T06:06:11.754Z,28.63
2022-10-13T06:09:16.486Z,31.00
2022-10-13T06:12:20.976Z,29.73
2022-10-13T06:15:28.131Z,30.13
2022-10-13T06:18:32.073Z,29.63
2022-10-13T06:21:36.151Z,30.83
2022-10-13T06:24:40.326Z,31.15
2022-10-13T06:27:44.686Z,33.58
2022-10-13T06:30:54.236Z,34.28
2022-10-13T06:33:59.246Z,31.40
2022-10-13T06:37:03.387Z,39.92
2022-10-13T06:40:07.644Z,31.42
2022-10-13T06:43:11.409Z,34.63
2022-10-13T06:46:15.922Z,30.50
2022-10-13T06:49:21.000Z,31.05
2022-10-13T06:52:24.910Z,35.55
2022-10-13T06:55:29.101Z,39.80
2022-10-13T06:58:35.126Z,31.52
2022-10-13T07:01:41.733Z,42.60
2022-10-13T07:04:47.337Z,36.92
2022-10-13T07:07:54.475Z,40.00
2022-10-13T07:10:58.743Z,35.05
2022-10-13T07:14:02.681Z,34.67
2022-10-13T07:17:07.089Z,38.30
2022-10-13T07:20:11.427Z,42.10
2022-10-13T07:23:15.308Z,37.97
2022-10-13T07:26:19.344Z,36.30
2022-10-13T07:29:23.573Z,34.00
2022-10-13T07:32:27.528Z,40.20
2022-10-13T07:35:31.566Z,35.53
2022-10-13T07:38:35.517Z,39.95
2022-10-13T07:41:39.377Z,38.10
2022-10-13T07:44:43.913Z,35.03
2022-10-13T07:47:47.693Z,35.00
2022-10-13T07:50:51.779Z,35.80
2022-10-13T07:53:55.698Z,35.58
2022-10-13T07:56:59.457Z,40.15
2022-10-13T08:00:06.083Z,39.05
2022-10-13T08:03:10.043Z,35.55
2022-10-13T08:06:14.348Z,42.80
2022-10-13T08:09:18.572Z,38.92
2022-10-13T08:12:22.704Z,44.97
2022-10-13T08:15:26.725Z,39.65
2022-10-13T08:18:30.763Z,33.08
2022-10-13T08:24:58.945Z,36.47
2022-10-13T08:28:03.052Z,34.70
2022-10-13T08:31:07.574Z,34.17
2022-10-13T08:34:12.101Z,32.65
2022-10-13T08:37:18.329Z,34.63
2022-10-13T08:40:23.139Z,40.17
2022-10-13T08:43:27.653Z,35.17
2022-10-13T08:46:53.879Z,35.10
2022-10-13T08:50:02.078Z,39.63
2022-10-13T08:53:13.131Z,40.90
2022-10-13T08:56:24.662Z,39.75
2022-10-13T08:59:28.999Z,39.97
2022-10-13T09:02:32.984Z,36.20
2022-10-13T09:05:44.456Z,30.73
2022-10-13T09:08:54.235Z,31.05
2022-10-13T09:11:58.753Z,30.85
2022-10-13T09:15:09.806Z,40.30
2022-10-13T09:18:14.243Z,32.58
2022-10-13T09:21:25.386Z,38.22
2022-10-13T09:24:29.376Z,33.97
2022-10-13T09:27:51.687Z,35.67
2022-10-13T09:31:14.205Z,34.25
2022-10-13T09:34:21.520Z,30.42
2022-10-13T09:37:25.976Z,32.17
2022-10-13T09:40:33.149Z,32.25
2022-10-13T09:43:40.750Z,36.33
2022-10-13T09:46:52.762Z,35.38
2022-10-13T09:50:14.534Z,32.28
2022-10-13T09:53:34.652Z,29.30
2022-10-13T09:56:46.124Z,33.97
2022-10-13T09:59:58.732Z,37.10
2022-10-13T10:03:22.161Z,32.15
2022-10-13T10:06:27.896Z,34.28
2022-10-13T10:09:40.202Z,34.28
2022-10-13T10:12:45.137Z,32.50
2022-10-13T10:15:55.821Z,29.60
2022-10-13T10:19:43.972Z,34.35
2022-10-13T10:23:31.068Z,34.50
2022-10-13T10:27:09.588Z,36.90
2022-10-13T10:30:19.376Z,30.55
2022-10-13T10:33:54.611Z,36.00
2022-10-13T10:37:21.100Z,29.55
2022-10-13T10:41:03.973Z,38.88
2022-10-13T10:44:15.799Z,30.00
2022-10-13T10:47:30.123Z,31.77
2022-10-13T10:50:35.118Z,26.27
2022-10-13T10:53:58.303Z,26.38
2022-10-13T10:57:12.447Z,28.08
2022-10-13T11:00:20.069Z,26.20
2022-10-13T11:03:29.414Z,30.17
2022-10-13T11:06:36.142Z,24.23
2022-10-13T11:09:42.909Z,23.13
2022-10-13T11:12:48.411Z,25.83
2022-10-13T11:15:53.454Z,22.88
2022-10-13T11:19:30.604Z,32.25
2022-10-13T11:22:34.885Z,22.55
2022-10-13T11:25:43.477Z,32.05
2022-10-13T11:28:48.260Z,28.80
2022-10-13T11:31:54.685Z,36.10
2022-10-13T11:35:35.519Z,27.80
2022-10-13T11:38:41.487Z,26.20
2022-10-13T11:42:03.825Z,26.25
2022-10-13T11:45:19.442Z,24.88
2022-10-13T11:48:39.993Z,26.23
2022-10-13T11:52:21.966Z,21.30
2022-10-13T11:55:51.126Z,29.60
2022-10-13T11:58:54.971Z,24.30
2022-10-13T12:02:11.283Z,33.42
2022-10-13T12:05:28.266Z,24.40
2022-10-13T12:08:35.152Z,24.15
2022-10-13T12:11:39.388Z,22.92
2022-10-13T12:14:47.582Z,23.25
2022-10-13T12:17:51.465Z,20.40
2022-10-13T12:20:58.479Z,22.60
2022-10-13T12:24:08.834Z,18.27
2022-10-13T12:27:22.358Z,22.50
2022-10-13T12:33:38.838Z,25.13
2022-10-13T12:36:45.466Z,23.52
2022-10-13T12:39:50.032Z,17.38
2022-10-13T12:42:53.999Z,19.55
2022-10-13T12:45:58.093Z,20.42
2022-10-13T12:52:25.244Z,16.40
2022-10-13T12:55:30.991Z,19.30
2022-10-13T12:58:35.979Z,21.67
2022-10-13T13:01:40.300Z,24.52
2022-10-13T13:04:44.587Z,23.40
2022-10-13T13:07:54.933Z,24.92
2022-10-13T13:11:02.151Z,22.42
2022-10-13T13:14:35.927Z,25.20
2022-10-13T13:21:05.878Z,23.33
2022-10-13T13:24:16.458Z,23.38
2022-10-13T13:27:37.370Z,22.35
2022-10-13T13:30:41.786Z,21.27
2022-10-13T13:33:47.026Z,18.25
2022-10-13T13:36:51.032Z,20.00
2022-10-13T13:39:55.101Z,15.68
2022-10-13T13:42:59.199Z,17.65
2022-10-13T13:46:04.952Z,19.67
2022-10-13T13:49:11.666Z,21.63
2022-10-13T13:52:16.395Z,19.52
2022-10-13T13:55:20.398Z,18.60
2022-10-13T13:58:24.527Z,21.10
2022-10-13T14:01:28.361Z,14.43
2022-10-13T14:04:32.124Z,16.45
2022-10-13T14:07:36.224Z,17.02
2022-10-13T14:10:40.866Z,21.08
2022-10-13T14:13:44.526Z,21.10
2022-10-13T14:16:48.397Z,15.70
2022-10-13T14:19:52.267Z,21.85
2022-10-13T14:22:56.145Z,18.60
2022-10-13T14:25:59.908Z,16.65
2022-10-13T14:29:04.227Z,17.27
2022-10-13T14:32:08.085Z,16.48
2022-10-13T14:35:11.996Z,19.75
2022-10-13T14:38:15.978Z,17.05
2022-10-13T14:41:20.220Z,17.80
2022-10-13T14:44:24.270Z,15.00
2022-10-13T14:47:28.405Z,16.00
2022-10-13T14:50:32.647Z,16.85
2022-10-13T14:53:39.406Z,21.27
2022-10-13T14:56:44.726Z,19.05
2022-10-13T14:59:48.870Z,16.85
2022-10-13T15:02:52.792Z,18.20
2022-10-13T15:05:56.729Z,15.75
2022-10-13T15:09:00.925Z,19.55
2022-10-13T15:12:07.881Z,18.05
2022-10-13T15:15:11.990Z,18.90
2022-10-13T15:18:15.903Z,22.00
2022-10-13T15:21:20.165Z,22.35
2022-10-13T15:24:24.661Z,18.73
2022-10-13T15:27:28.511Z,18.67
2022-10-13T15:30:35.462Z,18.25
2022-10-13T15:33:42.824Z,17.30
2022-10-13T15:36:47.012Z,17.98
2022-10-13T15:39:56.011Z,15.93
2022-10-13T15:43:00.910Z,17.33
2022-10-13T15:46:07.261Z,19.05
2022-10-13T15:49:11.121Z,24.02
2022-10-13T15:52:15.253Z,19.85
2022-10-13T15:55:19.198Z,18.35
2022-10-13T15:58:23.587Z,20.42
2022-10-13T16:01:27.434Z,18.42
2022-10-13T16:04:36.409Z,18.23
2022-10-13T16:07:41.569Z,18.30
2022-10-13T16:10:45.672Z,19.25
2022-10-13T16:13:52.279Z,22.13
2022-10-13T16:16:58.432Z,16.83
2022-10-13T16:20:04.075Z,17.85
2022-10-13T16:23:08.237Z,20.90
2022-10-13T16:26:12.488Z,18.40
2022-10-13T16:29:16.878Z,17.20
2022-10-13T16:32:21.293Z,19.92
2022-10-13T16:35:25.680Z,22.65
2022-10-13T16:38:29.965Z,22.33
2022-10-13T16:41:34.365Z,19.55
2022-10-13T16:44:38.469Z,18.70
2022-10-13T16:47:42.626Z,20.30
2022-10-13T16:50:47.067Z,17.58
2022-10-13T16:53:52.677Z,20.48
2022-10-13T16:56:56.843Z,17.45
2022-10-13T17:00:00.825Z,19.33
2022-10-13T17:03:06.311Z,21.75
2022-10-13T17:06:11.211Z,19.08
2022-10-13T17:09:15.064Z,22.85
2022-10-13T17:12:19.167Z,22.65
2022-10-13T17:15:23.432Z,17.83
2022-10-13T17:18:27.735Z,17.77
2022-10-13T17:21:31.589Z,20.65
2022-10-13T17:24:35.782Z,18.23
2022-10-13T17:27:40.728Z,20.90
2022-10-13T17:30:45.227Z,17.58
2022-10-13T17:33:50.089Z,16.73
2022-10-13T17:36:54.191Z,16.20
2022-10-13T17:39:59.270Z,19.65
2022-10-13T17:43:03.482Z,18.85
2022-10-13T17:46:41.321Z,17.38
2022-10-13T17:49:45.358Z,19.77
2022-10-13T17:52:49.559Z,24.20
2022-10-13T17:55:54.701Z,18.10
2022-10-13T17:59:00.285Z,17.58
2022-10-13T18:02:04.472Z,18.80
2022-10-13T18:05:09.112Z,16.77
2022-10-13T18:08:13.321Z,20.08
2022-10-13T18:11:19.125Z,18.13
2022-10-13T18:14:24.943Z,17.95
2022-10-13T18:17:29.053Z,21.38
2022-10-13T18:20:37.784Z,21.67
2022-10-13T18:23:42.428Z,17.83
2022-10-13T18:26:46.768Z,18.45
2022-10-13T18:29:50.863Z,16.92
2022-10-13T18:32:54.810Z,17.52
2022-10-13T18:35:59.213Z,19.90
2022-10-13T18:39:11.306Z,15.50
2022-10-13T18:42:17.886Z,16.27
2022-10-13T18:45:22.026Z,18.60
2022-10-13T18:48:25.919Z,19.33
2022-10-13T18:51:35.591Z,16.42
2022-10-13T18:54:40.593Z,19.63
2022-10-13T18:57:44.798Z,18.63
2022-10-13T19:00:49.027Z,18.17
2022-10-13T19:03:54.641Z,18.63
2022-10-13T19:06:58.429Z,22.45
2022-10-13T19:10:02.446Z,18.17
2022-10-13T19:13:06.724Z,19.48
2022-10-13T19:16:16.679Z,18.80
2022-10-13T19:19:20.469Z,17.48
2022-10-13T19:22:24.719Z,23.00
2022-10-13T19:25:28.489Z,19.77
2022-10-13T19:28:32.430Z,18.52
2022-10-13T19:31:39.276Z,23.65
2022-10-13T19:34:43.157Z,20.38
2022-10-13T19:37:47.152Z,19.30
2022-10-13T19:40:52.491Z,18.15
2022-10-13T19:43:56.766Z,21.85
2022-10-13T19:47:00.842Z,18.70
2022-10-13T19:50:06.000Z,18.67
2022-10-13T19:53:11.055Z,23.30
2022-10-13T19:56:24.840Z,19.38
2022-10-13T19:59:28.859Z,15.35
2022-10-13T20:02:32.849Z,18.45
2022-10-13T20:05:38.386Z,15.63
2022-10-13T20:08:42.770Z,17.50
2022-10-13T20:11:51.586Z,19.75
2022-10-13T20:14:55.390Z,17.70
2022-10-13T20:17:59.326Z,22.42
2022-10-13T20:21:08.658Z,20.42
2022-10-13T20:24:12.979Z,17.75
2022-10-13T20:27:17.181Z,21.63
2022-10-13T20:30:21.375Z,18.48
2022-10-13T20:33:25.246Z,21.95
2022-10-13T20:36:29.158Z,22.42
2022-10-13T20:39:33.338Z,23.88
2022-10-13T20:42:37.260Z,21.35
2022-10-13T20:45:41.246Z,23.35
2022-10-13T20:49:09.375Z,25.73
2022-10-13T20:52:09.321Z,25.92
2022-10-13T20:55:13.372Z,21.60
2022-10-13T20:58:17.086Z,22.88
2022-10-13T21:01:22.355Z,20.75
2022-10-13T21:04:26.956Z,21.23
2022-10-13T21:07:31.224Z,24.50
2022-10-13T21:10:36.775Z,23.23
2022-10-13T21:13:41.931Z,22.90
2022-10-13T21:16:45.883Z,24.55
2022-10-13T21:19:49.688Z,21.00
2022-10-13T21:22:53.424Z,23.25
2022-10-13T21:26:00.761Z,25.38
2022-10-13T21:29:05.127Z,26.83
2022-10-13T21:32:09.150Z,24.52
2022-10-13T21:35:13.269Z,22.27
2022-10-13T21:38:19.933Z,23.17
2022-10-13T21:41:23.963Z,25.05
2022-10-13T21:44:28.082Z,27.48
2022-10-13T21:47:33.912Z,26.98
2022-10-13T21:50:38.130Z,22.80
2022-10-13T21:53:41.985Z,20.50
2022-10-13T21:56:46.000Z,25.80
2022-10-13T21:59:49.938Z,19.65
2022-10-13T22:02:53.874Z,25.05
2022-10-13T22:05:58.111Z,24.63
2022-10-13T22:09:04.150Z,23.35
2022-10-13T22:12:09.170Z,23.17
2022-10-13T22:15:13.272Z,20.30
2022-10-13T22:18:17.626Z,22.40
2022-10-13T22:21:28.145Z,27.92
2022-10-13T22:24:32.411Z,25.55
2022-10-13T22:27:36.710Z,24.98
2022-10-13T22:30:40.643Z,25.45
2022-10-13T22:33:44.909Z,22.70
2022-10-13T22:36:48.782Z,27.95
2022-10-13T22:39:53.036Z,27.77
2022-10-13T22:42:56.970Z,23.42
2022-10-13T22:46:04.261Z,22.90
2022-10-13T22:49:09.092Z,25.38
2022-10-13T22:52:13.241Z,28.25
2022-10-13T22:55:17.288Z,23.52
2022-10-13T22:58:21.584Z,22.95
2022-10-13T23:01:26.284Z,25.15
2022-10-13T23:04:30.291Z,26.00
2022-10-13T23:07:33.898Z,25.67
2022-10-13T23:10:37.913Z,22.52
2022-10-13T23:13:42.155Z,26.95
2022-10-13T23:16:46.157Z,25.77
2022-10-13T23:19:49.716Z,25.70
2022-10-13T23:22:53.742Z,25.67
2022-10-13T23:26:05.314Z,27.05
2022-10-13T23:29:09.601Z,30.50
2022-10-13T23:32:13.698Z,24.98
2022-10-13T23:35:17.702Z,25.45
2022-10-13T23:38:22.030Z,28.17
2022-10-13T23:41:26.675Z,27.33
2022-10-13T23:44:30.843Z,26.00
2022-10-13T23:47:35.047Z,25.55
2022-10-13T23:50:38.924Z,24.05
2022-10-13T23:53:43.060Z,28.17
2022-10-13T23:56:46.853Z,24.70
2022-10-13T23:59:50.656Z,22.40
